Time;durP1;ratioP1;P1;durP2;ratioP2;P2;SDS_P1;SDS_P2;PMS_P1;PMS_P2;Temp;Humidity;BMP_temperature;BMP_pressure;BME280_temperature;BME280_humidity;BME280_pressure;Samples;Min_cycle;Max_cycle;Signal;HPM_P1;HPM_P2
2021/03/04 00:00:33;;;;;;;26.40;12.90;;;4.80;99.90;;;;;;5073170;28;20451;-51
2021/03/04 00:03:00;;;;;;;19.37;11.63;;;4.60;99.90;;;;;;5073743;28;20451;-51
2021/03/04 00:05:27;;;;;;;17.90;10.97;;;4.70;99.90;;;;;;5072756;28;21163;-51
2021/03/04 00:07:54;;;;;;;23.43;12.23;;;4.70;99.90;;;;;;5073452;28;21003;-51
2021/03/04 00:10:22;;;;;;;18.90;11.90;;;4.90;99.90;;;;;;5073365;28;20455;-50
2021/03/04 00:12:50;;;;;;;19.80;10.77;;;4.90;99.90;;;;;;5073405;28;20443;-50
2021/03/04 00:15:19;;;;;;;19.57;11.10;;;4.90;99.90;;;;;;5073714;28;20451;-50
2021/03/04 00:17:47;;;;;;;20.23;11.47;;;4.90;99.90;;;;;;5059246;28;20468;-50
2021/03/04 00:20:17;;;;;;;19.33;10.97;;;4.80;99.90;;;;;;5066367;28;20666;-51
2021/03/04 00:22:44;;;;;;;16.47;10.13;;;4.80;99.90;;;;;;5073648;28;20454;-50
2021/03/04 00:25:12;;;;;;;17.97;10.13;;;4.80;99.90;;;;;;5073516;28;20528;-50
2021/03/04 00:27:39;;;;;;;20.13;10.33;;;5.00;99.90;;;;;;5072827;28;20474;-50
2021/03/04 00:30:07;;;;;;;15.80;10.00;;;5.00;99.90;;;;;;5073504;28;20500;-50
2021/03/04 00:32:34;;;;;;;17.43;10.23;;;4.90;99.90;;;;;;5071348;28;20447;-51
2021/03/04 00:35:00;;;;;;;16.43;9.03;;;4.90;99.90;;;;;;5069700;28;20451;-50
2021/03/04 00:37:27;;;;;;;17.67;10.30;;;4.90;99.90;;;;;;5072924;28;20467;-50
2021/03/04 00:39:53;;;;;;;15.20;9.90;;;5.00;99.90;;;;;;5072838;28;20461;-51
2021/03/04 00:42:21;;;;;;;14.83;9.90;;;4.90;99.90;;;;;;5072829;28;20459;-51
2021/03/04 00:44:48;;;;;;;15.67;10.00;;;4.90;99.90;;;;;;5072674;28;20455;-50
2021/03/04 00:47:14;;;;;;;21.17;11.30;;;4.90;99.90;;;;;;5072877;28;20466;-51
2021/03/04 00:49:41;;;;;;;24.07;12.37;;;4.80;99.90;;;;;;5072132;28;20536;-51
2021/03/04 00:52:08;;;;;;;24.37;12.13;;;4.80;99.90;;;;;;5072802;28;20451;-51
2021/03/04 00:54:34;;;;;;;23.20;12.40;;;4.70;99.90;;;;;;5072790;28;20445;-51
2021/03/04 00:57:01;;;;;;;20.97;12.10;;;4.60;99.90;;;;;;5072292;28;20479;-51
2021/03/04 00:59:29;;;;;;;16.57;11.10;;;4.70;99.90;;;;;;5072718;28;21035;-51
2021/03/04 01:01:55;;;;;;;22.90;11.03;;;4.60;99.90;;;;;;5072548;28;20446;-50
2021/03/04 01:04:22;;;;;;;18.23;9.87;;;4.70;99.90;;;;;;5071688;28;20451;-50
2021/03/04 01:06:48;;;;;;;16.30;10.00;;;4.80;99.90;;;;;;5071615;28;20467;-50
2021/03/04 01:09:15;;;;;;;14.63;9.13;;;4.80;99.90;;;;;;5070822;28;20478;-51
2021/03/04 01:11:41;;;;;;;15.83;8.37;;;4.90;99.90;;;;;;5072385;28;20462;-50
2021/03/04 01:14:08;;;;;;;18.10;9.53;;;4.80;99.90;;;;;;5071848;28;20451;-50
2021/03/04 01:16:35;;;;;;;12.63;7.80;;;4.80;99.90;;;;;;5052328;28;21019;-50
2021/03/04 01:19:02;;;;;;;13.30;7.80;;;4.90;99.90;;;;;;5055137;28;20455;-50
2021/03/04 01:21:29;;;;;;;11.53;7.10;;;5.00;99.90;;;;;;5071189;28;20864;-50
2021/03/04 01:23:55;;;;;;;15.13;7.70;;;4.90;99.90;;;;;;5071754;28;21018;-51
2021/03/04 01:26:22;;;;;;;10.63;6.70;;;5.00;99.90;;;;;;5071922;28;20489;-50
2021/03/04 01:28:48;;;;;;;12.07;6.30;;;5.10;99.90;;;;;;5071930;28;20482;-51
2021/03/04 01:31:15;;;;;;;10.27;6.53;;;5.10;99.90;;;;;;5071554;28;20960;-51
2021/03/04 01:33:42;;;;;;;14.50;6.20;;;5.10;99.90;;;;;;5071498;28;20454;-51
2021/03/04 01:36:09;;;;;;;13.23;7.30;;;5.10;99.90;;;;;;5071294;28;21006;-51
2021/03/04 01:38:35;;;;;;;12.60;8.33;;;5.10;99.90;;;;;;5071044;28;20443;-51
2021/03/04 01:41:02;;;;;;;15.60;8.23;;;5.00;99.90;;;;;;5071470;28;20462;-51
2021/03/04 01:43:28;;;;;;;14.40;8.10;;;4.90;99.90;;;;;;5071348;28;20455;-51
2021/03/04 01:45:55;;;;;;;16.97;8.57;;;4.90;99.90;;;;;;5071525;28;20463;-51
2021/03/04 01:48:22;;;;;;;12.53;7.70;;;5.10;99.90;;;;;;5068697;28;21068;-50
2021/03/04 01:50:50;;;;;;;10.80;6.67;;;5.00;99.90;;;;;;5052129;28;20456;-51
2021/03/04 01:53:17;;;;;;;10.87;6.70;;;5.10;99.90;;;;;;5063880;28;20462;-51
2021/03/04 01:55:44;;;;;;;10.37;6.53;;;5.10;99.90;;;;;;5071352;28;20451;-51
2021/03/04 01:58:10;;;;;;;11.77;6.10;;;5.10;99.90;;;;;;5071619;28;20489;-51
2021/03/04 02:00:37;;;;;;;14.70;7.27;;;5.10;99.90;;;;;;5064845;28;20987;-50
2021/03/04 02:03:04;;;;;;;16.07;6.73;;;5.10;99.90;;;;;;5059972;28;20443;-50
2021/03/04 02:05:30;;;;;;;10.60;6.37;;;5.10;99.90;;;;;;5070389;28;20829;-51
2021/03/04 02:08:05;;;;;;;10.17;6.87;;;5.10;99.90;;;;;;5067308;28;20475;-50
2021/03/04 02:10:38;;;;;;;17.30;8.40;;;5.00;99.90;;;;;;5051151;28;20948;-50
2021/03/04 02:13:24;;;;;;;14.77;8.10;;;5.00;99.90;;;;;;5051429;28;20502;-50
2021/03/04 02:15:55;;;;;;;14.20;8.17;;;4.80;99.90;;;;;;5050891;28;20448;-50
2021/03/04 02:18:27;;;;;;;14.30;7.80;;;4.80;99.90;;;;;;5051316;28;20448;-50
2021/03/04 02:21:10;;;;;;;14.00;9.00;;;4.80;99.90;;;;;;5070509;28;20439;-50
2021/03/04 02:24:15;;;;;;;10.37;7.40;;;4.80;99.90;;;;;;5060590;28;20452;-51
2021/03/04 02:27:02;;;;;;;14.20;8.40;;;4.90;99.90;;;;;;5035856;28;20610;-50
2021/03/04 02:29:32;;;;;;;12.33;7.97;;;4.90;99.90;;;;;;5066465;28;20482;-51
2021/03/04 02:32:01;;;;;;;14.07;8.50;;;4.90;99.90;;;;;;5071217;28;20455;-51
2021/03/04 02:34:29;;;;;;;21.97;8.57;;;5.20;99.90;;;;;;5071205;28;20454;-51
2021/03/04 02:36:56;;;;;;;18.77;10.30;;;5.10;99.90;;;;;;5070397;28;20471;-51
2021/03/04 02:39:25;;;;;;;16.20;9.87;;;5.20;99.90;;;;;;5070908;28;20448;-51
2021/03/04 02:41:53;;;;;;;16.17;9.87;;;5.10;99.90;;;;;;5070863;28;20955;-50
2021/03/04 02:44:22;;;;;;;20.03;11.50;;;5.20;99.90;;;;;;5070910;28;20458;-50
2021/03/04 02:46:49;;;;;;;22.97;11.70;;;5.20;99.90;;;;;;5069533;28;20470;-51
2021/03/04 02:49:18;;;;;;;19.20;11.80;;;5.00;99.90;;;;;;5070718;28;20478;-50
2021/03/04 02:51:45;;;;;;;24.23;13.00;;;5.00;99.90;;;;;;5070747;28;20447;-51
2021/03/04 02:54:12;;;;;;;21.60;12.97;;;4.90;99.90;;;;;;5069962;28;20462;-51
2021/03/04 02:56:42;;;;;;;22.17;13.53;;;4.90;99.90;;;;;;5070170;28;20471;-50
2021/03/04 02:59:11;;;;;;;26.63;13.37;;;5.00;99.90;;;;;;5070589;28;20450;-50
2021/03/04 03:01:40;;;;;;;23.53;13.83;;;5.00;99.90;;;;;;5070774;28;20948;-50
2021/03/04 03:04:08;;;;;;;30.50;13.47;;;5.00;99.90;;;;;;5068758;28;21023;-51
2021/03/04 03:06:37;;;;;;;26.13;14.17;;;4.90;99.90;;;;;;5070626;28;20476;-51
2021/03/04 03:09:04;;;;;;;25.23;14.17;;;4.80;99.90;;;;;;5070633;28;20482;-51
2021/03/04 03:11:32;;;;;;;27.80;15.30;;;4.90;99.90;;;;;;5070133;28;20477;-51
2021/03/04 03:13:59;;;;;;;28.07;14.80;;;4.90;99.90;;;;;;5070431;28;21006;-51
2021/03/04 03:16:27;;;;;;;29.97;16.30;;;4.90;99.90;;;;;;5070222;28;20469;-50
2021/03/04 03:18:56;;;;;;;26.53;15.00;;;5.00;99.90;;;;;;5063442;28;20534;-51
2021/03/04 03:21:22;;;;;;;31.90;16.73;;;5.00;99.90;;;;;;5070073;28;20454;-51
2021/03/04 03:23:49;;;;;;;28.43;16.03;;;4.90;99.90;;;;;;5073949;28;20472;-51
2021/03/04 03:26:15;;;;;;;29.00;16.20;;;4.90;99.90;;;;;;5073649;28;21031;-50
2021/03/04 03:28:42;;;;;;;28.00;17.00;;;5.00;99.90;;;;;;5074636;28;20605;-50
2021/03/04 03:31:10;;;;;;;28.83;15.93;;;5.10;99.90;;;;;;5074549;28;20443;-51
2021/03/04 03:33:39;;;;;;;29.10;17.40;;;5.00;99.90;;;;;;5071684;28;20450;-51
2021/03/04 03:36:08;;;;;;;27.53;16.77;;;4.90;99.90;;;;;;5057752;28;20451;-51
2021/03/04 03:38:35;;;;;;;24.70;16.20;;;4.80;99.90;;;;;;5074203;28;20462;-50
2021/03/04 03:41:02;;;;;;;28.63;17.00;;;4.70;99.90;;;;;;5074679;28;20443;-51
2021/03/04 03:43:29;;;;;;;29.13;16.40;;;4.70;99.90;;;;;;5074305;28;20944;-50
2021/03/04 03:45:57;;;;;;;31.07;17.70;;;4.80;99.90;;;;;;5074079;28;21070;-51
2021/03/04 03:48:26;;;;;;;29.23;17.80;;;4.80;99.90;;;;;;5073850;28;20983;-51
2021/03/04 03:50:56;;;;;;;30.40;17.10;;;4.60;99.90;;;;;;5073269;28;20979;-51
2021/03/04 03:53:24;;;;;;;31.20;17.57;;;4.70;99.90;;;;;;5073160;28;20446;-51
2021/03/04 03:55:52;;;;;;;30.73;18.00;;;4.80;99.90;;;;;;5073734;28;20447;-51
2021/03/04 03:58:21;;;;;;;34.00;18.53;;;4.70;99.90;;;;;;5074197;28;20936;-51
2021/03/04 04:00:48;;;;;;;31.80;18.00;;;4.70;99.90;;;;;;5073761;28;20463;-51
2021/03/04 04:03:16;;;;;;;30.17;17.80;;;4.80;99.90;;;;;;5073260;28;20459;-51
2021/03/04 04:05:43;;;;;;;32.57;18.33;;;4.80;99.90;;;;;;5073437;28;20518;-51
2021/03/04 04:08:10;;;;;;;30.33;17.17;;;4.80;99.90;;;;;;5070477;28;20556;-51
2021/03/04 04:10:38;;;;;;;30.70;18.53;;;4.80;99.90;;;;;;5073596;28;20454;-51
2021/03/04 04:13:04;;;;;;;28.30;17.07;;;4.80;99.90;;;;;;5073752;28;20509;-51
2021/03/04 04:15:32;;;;;;;31.47;17.80;;;4.90;99.90;;;;;;5073626;28;20523;-51
2021/03/04 04:18:00;;;;;;;31.23;18.73;;;4.90;99.90;;;;;;5072705;28;20501;-51
2021/03/04 04:20:27;;;;;;;36.23;19.00;;;5.00;99.90;;;;;;5069623;28;20446;-51
2021/03/04 04:22:55;;;;;;;31.90;19.37;;;5.00;99.90;;;;;;5072166;28;20829;-51
2021/03/04 04:25:24;;;;;;;36.60;19.43;;;4.80;99.90;;;;;;5053375;28;20479;-51
2021/03/04 04:27:51;;;;;;;33.43;19.43;;;4.90;99.90;;;;;;5074731;22;20502;-53
2021/03/04 04:30:19;;;;;;;37.53;19.80;;;4.80;99.90;;;;;;5052880;28;20478;-52
2021/03/04 04:32:46;;;;;;;33.80;19.37;;;4.80;99.90;;;;;;5052040;28;20575;-52
2021/03/04 04:35:14;;;;;;;36.70;20.13;;;4.70;99.90;;;;;;5052596;28;20451;-52
2021/03/04 04:37:40;;;;;;;34.80;19.93;;;4.80;99.90;;;;;;5052876;28;20536;-52
2021/03/04 04:40:08;;;;;;;33.20;20.07;;;4.70;99.90;;;;;;5041104;28;20444;-52
2021/03/04 04:42:36;;;;;;;34.53;19.40;;;4.70;99.90;;;;;;5052855;28;20983;-52
2021/03/04 04:45:05;;;;;;;33.90;18.77;;;4.80;99.90;;;;;;5052494;28;20505;-52
2021/03/04 04:47:32;;;;;;;30.87;18.40;;;4.80;99.90;;;;;;5041612;28;20468;-52
2021/03/04 04:49:58;;;;;;;37.30;20.77;;;4.80;99.90;;;;;;5052300;28;20848;-52
2021/03/04 04:52:25;;;;;;;37.80;20.33;;;4.70;99.90;;;;;;5052668;28;20444;-52
2021/03/04 04:54:52;;;;;;;38.43;20.17;;;4.60;99.90;;;;;;5051361;28;20444;-52
2021/03/04 04:57:18;;;;;;;37.40;21.10;;;4.70;99.90;;;;;;5052032;28;20475;-52
2021/03/04 04:59:46;;;;;;;33.83;19.40;;;4.70;99.90;;;;;;5052144;28;20501;-53
2021/03/04 05:02:12;;;;;;;32.83;17.90;;;4.70;99.90;;;;;;5052455;28;20538;-52
2021/03/04 05:04:39;;;;;;;34.83;20.47;;;4.80;99.90;;;;;;5051739;28;20447;-52
2021/03/04 05:07:05;;;;;;;37.90;20.40;;;4.80;99.90;;;;;;5051480;28;20479;-52
2021/03/04 05:09:32;;;;;;;33.13;20.07;;;4.60;99.90;;;;;;5042638;28;20479;-52
2021/03/04 05:11:59;;;;;;;35.10;19.93;;;4.60;99.90;;;;;;5046837;28;20539;-52
2021/03/04 05:14:25;;;;;;;40.33;19.53;;;4.70;99.90;;;;;;5052546;28;20452;-52
2021/03/04 05:16:52;;;;;;;35.80;19.57;;;4.80;99.90;;;;;;5051814;28;20526;-53
2021/03/04 05:19:19;;;;;;;36.80;21.20;;;4.80;99.90;;;;;;5051673;28;20452;-52
2021/03/04 05:21:46;;;;;;;38.70;20.60;;;4.80;99.90;;;;;;5052052;28;20501;-52
2021/03/04 05:24:13;;;;;;;37.10;20.30;;;4.70;99.90;;;;;;5051728;28;20452;-53
2021/03/04 05:26:40;;;;;;;36.53;21.23;;;4.80;99.90;;;;;;5050963;28;20481;-52
2021/03/04 05:29:06;;;;;;;41.00;23.30;;;4.90;99.90;;;;;;5042603;28;20477;-53
2021/03/04 05:31:32;;;;;;;38.57;20.80;;;4.90;99.90;;;;;;5050627;28;20451;-53
2021/03/04 05:34:00;;;;;;;36.40;22.30;;;4.90;99.90;;;;;;5050871;28;20455;-53
2021/03/04 05:36:26;;;;;;;37.40;20.70;;;4.90;99.90;;;;;;5051685;28;20824;-52
2021/03/04 05:38:53;;;;;;;37.67;20.90;;;4.90;99.90;;;;;;5047328;28;20445;-53
2021/03/04 05:41:21;;;;;;;32.67;19.23;;;5.10;99.90;;;;;;5051873;28;20497;-52
2021/03/04 05:43:49;;;;;;;36.30;19.80;;;5.10;99.90;;;;;;5049798;28;20868;-52
2021/03/04 05:46:19;;;;;;;39.23;21.27;;;4.80;99.90;;;;;;5032750;28;20956;-52
2021/03/04 05:48:48;;;;;;;36.23;19.77;;;4.80;99.90;;;;;;5051097;28;21023;-52
2021/03/04 05:51:22;;;;;;;36.53;18.90;;;4.70;99.90;;;;;;5051819;28;20526;-52
2021/03/04 05:53:51;;;;;;;31.90;18.50;;;4.80;99.90;;;;;;5051623;28;20456;-52
2021/03/04 05:56:18;;;;;;;33.53;19.37;;;5.00;99.90;;;;;;5051467;28;20474;-52
2021/03/04 05:58:45;;;;;;;29.83;16.17;;;5.00;99.90;;;;;;5042822;28;20444;-52
2021/03/04 06:01:13;;;;;;;39.53;17.23;;;4.90;99.90;;;;;;5032736;28;20453;-52
2021/03/04 06:03:40;;;;;;;25.73;15.23;;;4.70;99.90;;;;;;5050434;28;20957;-52
2021/03/04 06:06:07;;;;;;;23.33;14.37;;;4.90;99.90;;;;;;5049330;28;20530;-52
2021/03/04 06:08:35;;;;;;;24.50;15.50;;;4.80;99.90;;;;;;5050862;28;20574;-52
2021/03/04 06:11:02;;;;;;;25.80;14.10;;;4.70;99.90;;;;;;5051760;28;20455;-53
2021/03/04 06:13:29;;;;;;;21.93;13.00;;;4.60;99.90;;;;;;5051294;28;20526;-52
2021/03/04 06:15:55;;;;;;;20.63;13.20;;;4.60;99.90;;;;;;5050646;28;20810;-53
2021/03/04 06:18:22;;;;;;;30.60;13.17;;;4.70;99.90;;;;;;5050200;28;20463;-52
2021/03/04 06:20:49;;;;;;;26.10;13.50;;;4.80;99.90;;;;;;5050747;28;20455;-53
2021/03/04 06:23:15;;;;;;;21.50;13.03;;;4.90;99.90;;;;;;5051227;28;20452;-52
2021/03/04 06:25:45;;;;;;;23.00;13.47;;;4.80;99.90;;;;;;5050921;28;20585;-52
2021/03/04 06:28:12;;;;;;;25.20;13.43;;;4.70;99.90;;;;;;5050032;28;20491;-52
2021/03/04 06:30:41;;;;;;;26.20;13.60;;;4.60;99.90;;;;;;5049850;28;20452;-53
2021/03/04 06:33:09;;;;;;;27.50;13.97;;;4.50;99.90;;;;;;5048144;28;20459;-52
2021/03/04 06:35:37;;;;;;;25.30;13.83;;;4.50;99.90;;;;;;5050314;28;20460;-53
2021/03/04 06:38:13;;;;;;;25.07;12.90;;;4.50;99.90;;;;;;5050167;28;20469;-53
2021/03/04 06:40:40;;;;;;;22.77;12.90;;;4.50;99.90;;;;;;5049889;28;20486;-52
2021/03/04 06:43:16;;;;;;;25.43;14.00;;;4.50;99.90;;;;;;5044109;28;20979;-52
2021/03/04 06:45:43;;;;;;;21.83;12.53;;;4.60;99.90;;;;;;5042665;28;20452;-52
2021/03/04 06:48:11;;;;;;;27.10;13.20;;;4.50;99.90;;;;;;5050500;28;20842;-52
2021/03/04 06:50:39;;;;;;;21.60;12.30;;;4.60;99.90;;;;;;5050919;28;20834;-52
2021/03/04 06:53:15;;;;;;;27.80;13.77;;;4.60;99.90;;;;;;5044641;28;20460;-52
2021/03/04 06:55:52;;;;;;;21.43;12.57;;;4.60;99.90;;;;;;5030690;28;20449;-53
2021/03/04 06:58:27;;;;;;;24.37;12.93;;;4.70;99.90;;;;;;5030853;28;20480;-53
2021/03/04 07:01:07;;;;;;;17.73;11.53;;;4.80;99.90;;;;;;5032077;28;20448;-52
2021/03/04 07:03:41;;;;;;;19.13;12.00;;;4.90;99.90;;;;;;5030805;28;20444;-52
2021/03/04 07:06:11;;;;;;;20.87;12.10;;;5.10;99.90;;;;;;5030490;28;20604;-52
2021/03/04 07:08:39;;;;;;;20.00;11.70;;;5.20;99.90;;;;;;5030649;28;20483;-52
2021/03/04 07:11:07;;;;;;;20.33;12.73;;;5.30;99.90;;;;;;5030917;28;20524;-52
2021/03/04 07:13:36;;;;;;;19.33;12.00;;;5.50;99.90;;;;;;5030871;28;20456;-52
2021/03/04 07:16:05;;;;;;;20.77;11.80;;;5.40;99.90;;;;;;5029921;28;20941;-53
2021/03/04 07:18:39;;;;;;;22.43;12.33;;;5.60;99.90;;;;;;5029801;28;20225;-51
2021/03/04 07:21:11;;;;;;;22.17;12.33;;;5.70;99.90;;;;;;5030020;28;20451;-52
2021/03/04 07:23:39;;;;;;;19.70;11.33;;;5.90;99.90;;;;;;5029958;28;20456;-52
2021/03/04 07:26:06;;;;;;;18.83;10.90;;;5.80;99.90;;;;;;5030047;28;20464;-52
2021/03/04 07:28:36;;;;;;;17.87;10.00;;;5.80;99.90;;;;;;5030128;28;20493;-52
2021/03/04 07:31:03;;;;;;;15.87;8.93;;;5.90;99.90;;;;;;5037622;28;20446;-53
2021/03/04 07:33:30;;;;;;;12.83;8.03;;;6.00;99.90;;;;;;5048300;28;20454;-52
2021/03/04 07:35:57;;;;;;;11.93;6.67;;;6.10;99.90;;;;;;5049631;28;20453;-52
2021/03/04 07:38:25;;;;;;;12.17;6.60;;;6.30;99.90;;;;;;5049726;28;20471;-52
2021/03/04 07:41:03;;;;;;;12.73;6.10;;;6.40;99.90;;;;;;5049452;28;20454;-52
2021/03/04 07:43:29;;;;;;;11.23;6.77;;;6.50;99.90;;;;;;5049775;28;20450;-52
2021/03/04 07:45:57;;;;;;;13.27;5.97;;;6.60;99.90;;;;;;5049644;28;20458;-52
2021/03/04 07:48:23;;;;;;;12.03;5.80;;;6.70;99.90;;;;;;5037861;28;21067;-52
2021/03/04 07:50:58;;;;;;;14.97;7.30;;;6.80;99.90;;;;;;5031139;28;20822;-52
2021/03/04 07:53:25;;;;;;;14.40;6.87;;;6.80;99.90;;;;;;5029989;28;20447;-52
2021/03/04 07:55:52;;;;;;;13.70;6.90;;;6.80;99.90;;;;;;5046550;28;20867;-53
2021/03/04 07:58:18;;;;;;;12.93;7.17;;;7.00;99.90;;;;;;5049612;28;20482;-53
2021/03/04 08:00:46;;;;;;;12.23;6.53;;;7.00;99.90;;;;;;5049290;28;20447;-53
2021/03/04 08:03:14;;;;;;;12.30;5.73;;;7.10;99.90;;;;;;5030059;28;20437;-53
2021/03/04 08:05:43;;;;;;;9.60;6.40;;;7.20;99.90;;;;;;5045075;28;20452;-53
2021/03/04 08:08:12;;;;;;;6.73;4.80;;;7.30;99.90;;;;;;5050006;28;21000;-53
2021/03/04 08:10:49;;;;;;;12.40;5.87;;;7.40;99.90;;;;;;5053495;28;20869;-53
2021/03/04 08:13:16;;;;;;;7.30;5.53;;;7.60;99.90;;;;;;5049069;28;20462;-52
2021/03/04 08:15:44;;;;;;;9.80;5.40;;;7.80;99.90;;;;;;5052284;28;20831;-52
2021/03/04 08:18:19;;;;;;;9.90;5.17;;;7.90;99.90;;;;;;5051531;28;20476;-52
2021/03/04 08:20:46;;;;;;;9.43;5.27;;;7.90;99.90;;;;;;5051957;28;20442;-53
2021/03/04 08:23:14;;;;;;;13.23;4.73;;;7.90;99.90;;;;;;5033252;28;20954;-53
2021/03/04 08:25:41;;;;;;;11.27;4.70;;;8.00;99.90;;;;;;5033014;28;20819;-53
2021/03/04 08:28:09;;;;;;;10.40;5.27;;;8.10;99.90;;;;;;5032788;28;20491;-53
2021/03/04 08:30:38;;;;;;;8.03;4.50;;;8.30;99.90;;;;;;5033071;28;20490;-53
2021/03/04 08:33:06;;;;;;;7.10;4.90;;;8.30;99.90;;;;;;5035159;28;20466;-52
2021/03/04 08:35:37;;;;;;;9.03;4.80;;;8.50;99.90;;;;;;5051765;28;20452;-53
2021/03/04 08:38:07;;;;;;;8.20;5.07;;;8.60;99.90;;;;;;5040191;28;20480;-54
2021/03/04 08:40:41;;;;;;;6.10;4.57;;;8.80;99.90;;;;;;5052577;28;20439;-54
2021/03/04 08:43:12;;;;;;;8.33;5.40;;;8.90;99.90;;;;;;5052638;28;20452;-54
2021/03/04 08:45:39;;;;;;;11.20;4.53;;;9.00;99.90;;;;;;5052241;28;20452;-54
2021/03/04 08:48:07;;;;;;;10.50;5.30;;;9.00;99.90;;;;;;5052265;28;20478;-53
2021/03/04 08:50:41;;;;;;;6.83;4.33;;;8.90;99.90;;;;;;5051962;28;20487;-53
2021/03/04 08:53:12;;;;;;;8.07;4.30;;;9.10;99.90;;;;;;5036356;28;20452;-52
2021/03/04 08:55:49;;;;;;;9.70;4.20;;;9.20;99.90;;;;;;5032500;28;20460;-53
2021/03/04 08:58:16;;;;;;;6.40;3.87;;;9.40;99.90;;;;;;5032593;28;20483;-52
2021/03/04 09:00:49;;;;;;;7.13;3.20;;;9.50;99.90;;;;;;5032503;28;20452;-52
2021/03/04 09:03:16;;;;;;;13.10;4.17;;;9.40;99.90;;;;;;5034843;28;20866;-53
2021/03/04 09:05:43;;;;;;;8.53;4.17;;;9.30;99.90;;;;;;5050656;28;20478;-53
2021/03/04 09:08:11;;;;;;;6.97;3.97;;;9.40;99.90;;;;;;5052261;28;20476;-53
2021/03/04 09:10:46;;;;;;;5.73;4.00;;;9.40;99.90;;;;;;5051716;28;20553;-53
2021/03/04 09:13:19;;;;;;;6.80;4.07;;;9.60;99.90;;;;;;5052521;28;20454;-52
2021/03/04 09:15:49;;;;;;;4.70;3.40;;;9.80;99.90;;;;;;5052219;28;20476;-53
2021/03/04 09:18:16;;;;;;;7.13;4.07;;;10.00;99.90;;;;;;5052060;28;20483;-51
2021/03/04 09:20:45;;;;;;;4.80;3.50;;;10.20;99.90;;;;;;5050800;28;20451;-51
2021/03/04 09:23:12;;;;;;;7.83;4.43;;;10.40;99.90;;;;;;5051943;28;20956;-51
2021/03/04 09:25:38;;;;;;;6.60;4.20;;;10.50;99.90;;;;;;5048005;28;20448;-52
2021/03/04 09:28:08;;;;;;;4.50;3.70;;;10.40;99.90;;;;;;5034981;28;20476;-51
2021/03/04 09:30:35;;;;;;;7.20;3.77;;;10.50;99.90;;;;;;5031995;28;20543;-52
2021/03/04 09:33:01;;;;;;;5.90;3.97;;;10.60;99.90;;;;;;5032015;28;20452;-52
2021/03/04 09:35:28;;;;;;;6.57;3.70;;;10.60;99.90;;;;;;5031733;28;20444;-52
2021/03/04 09:38:06;;;;;;;6.57;3.83;;;10.60;99.90;;;;;;5035447;28;20473;-52
2021/03/04 09:40:32;;;;;;;4.10;3.10;;;10.60;99.90;;;;;;5037275;28;20471;-52
2021/03/04 09:42:59;;;;;;;3.57;2.90;;;10.90;99.90;;;;;;5051560;28;20458;-52
2021/03/04 09:45:26;;;;;;;4.57;3.20;;;11.40;99.90;;;;;;5051425;28;20448;-52
2021/03/04 09:47:53;;;;;;;4.50;3.00;;;12.00;99.90;;;;;;5051354;28;20471;-52
2021/03/04 09:50:25;;;;;;;3.20;2.60;;;12.60;99.90;;;;;;5051241;28;20483;-51
2021/03/04 09:53:01;;;;;;;6.13;4.10;;;13.10;99.90;;;;;;5047739;28;20471;-52
2021/03/04 09:55:33;;;;;;;4.53;2.73;;;13.50;98.50;;;;;;5031244;28;20832;-52
2021/03/04 09:58:09;;;;;;;2.60;2.40;;;13.80;96.80;;;;;;5031464;28;20974;-52
2021/03/04 10:00:36;;;;;;;3.77;2.80;;;13.80;95.20;;;;;;5031294;28;20491;-53
2021/03/04 10:03:08;;;;;;;3.90;2.80;;;14.10;96.60;;;;;;5031453;28;20445;-52
2021/03/04 10:05:35;;;;;;;6.10;2.50;;;14.00;95.30;;;;;;5031565;28;20823;-51
2021/03/04 10:08:10;;;;;;;3.30;2.00;;;14.30;94.50;;;;;;5045046;28;20480;-52
2021/03/04 10:10:36;;;;;;;2.27;1.70;;;14.90;94.50;;;;;;5050909;28;20479;-51
2021/03/04 10:13:03;;;;;;;3.73;2.30;;;15.30;90.80;;;;;;5050619;28;20953;-52
2021/03/04 10:15:32;;;;;;;3.50;2.00;;;15.30;90.30;;;;;;5050945;28;20452;-53
2021/03/04 10:18:01;;;;;;;3.67;1.80;;;14.60;91.10;;;;;;5050656;28;20525;-52
2021/03/04 10:20:28;;;;;;;4.90;2.10;;;14.50;88.00;;;;;;5050990;28;20444;-52
2021/03/04 10:22:55;;;;;;;6.40;2.23;;;14.30;90.10;;;;;;5045484;28;20452;-52
2021/03/04 10:25:23;;;;;;;2.50;2.20;;;14.70;89.60;;;;;;5030713;28;20453;-52
2021/03/04 10:27:51;;;;;;;4.50;2.50;;;15.30;85.70;;;;;;5065715;22;20502;-54
2021/03/04 10:30:19;;;;;;;3.30;2.20;;;15.70;84.70;;;;;;5070973;28;21042;-55
2021/03/04 10:32:46;;;;;;;2.73;1.90;;;14.90;88.10;;;;;;5070478;28;20944;-55
2021/03/04 10:35:14;;;;;;;2.50;1.87;;;14.90;87.20;;;;;;5070790;28;20446;-55
2021/03/04 10:37:42;;;;;;;4.40;2.10;;;15.50;84.20;;;;;;5069820;28;20471;-54
2021/03/04 10:40:10;;;;;;;1.60;1.47;;;16.10;84.20;;;;;;5054147;28;20504;-54
2021/03/04 10:42:38;;;;;;;4.50;1.60;;;16.10;79.60;;;;;;5050432;28;20471;-55
2021/03/04 10:45:07;;;;;;;4.13;1.60;;;16.50;77.80;;;;;;5064817;28;20455;-55
2021/03/04 10:47:34;;;;;;;3.87;1.97;;;16.80;72.40;;;;;;5070345;28;21001;-55
2021/03/04 10:50:00;;;;;;;4.70;1.83;;;17.00;76.70;;;;;;5070633;28;20478;-55
2021/03/04 10:52:27;;;;;;;4.17;1.70;;;17.00;75.30;;;;;;5070784;28;20501;-55
2021/03/04 10:54:54;;;;;;;6.30;2.00;;;16.20;73.90;;;;;;5055952;28;21022;-55
2021/03/04 10:57:21;;;;;;;3.00;1.90;;;15.80;71.20;;;;;;5050262;28;20498;-55
2021/03/04 10:59:49;;;;;;;3.73;2.30;;;15.80;71.90;;;;;;5050527;28;20526;-54
2021/03/04 11:02:16;;;;;;;2.70;1.93;;;16.20;73.10;;;;;;5055608;28;20475;-54
2021/03/04 11:04:43;;;;;;;5.00;3.60;;;16.40;70.60;;;;;;5050385;28;20949;-55
2021/03/04 11:07:09;;;;;;;10.00;4.17;;;16.40;71.30;;;;;;5050578;28;20486;-54
2021/03/04 11:09:36;;;;;;;7.00;3.87;;;16.30;71.50;;;;;;5050661;28;20479;-53
2021/03/04 11:12:03;;;;;;;5.63;3.50;;;15.90;72.00;;;;;;5048051;28;20471;-54
2021/03/04 11:14:30;;;;;;;8.40;4.30;;;15.40;73.60;;;;;;5049669;28;20455;-54
2021/03/04 11:16:57;;;;;;;15.80;6.10;;;15.10;75.80;;;;;;5050317;28;20470;-54
2021/03/04 11:19:24;;;;;;;15.50;6.83;;;14.40;82.40;;;;;;5042506;28;20479;-54
2021/03/04 11:21:51;;;;;;;11.97;6.70;;;14.50;81.90;;;;;;5030396;28;20452;-54
2021/03/04 11:24:17;;;;;;;13.83;8.13;;;14.80;82.00;;;;;;5030010;28;20459;-54
2021/03/04 11:26:44;;;;;;;19.60;9.10;;;14.80;85.90;;;;;;5030343;28;20449;-55
2021/03/04 11:29:12;;;;;;;19.47;10.00;;;14.30;89.70;;;;;;5049891;28;20483;-52
2021/03/04 11:31:39;;;;;;;20.63;10.23;;;14.20;88.20;;;;;;5050315;28;20444;-52
2021/03/04 11:34:06;;;;;;;18.80;9.40;;;14.60;86.10;;;;;;5049990;28;20967;-52
2021/03/04 11:36:34;;;;;;;21.20;9.93;;;14.60;87.70;;;;;;5049763;28;20452;-52
2021/03/04 11:39:03;;;;;;;19.87;8.90;;;14.50;86.90;;;;;;5049958;28;20448;-51
2021/03/04 11:41:29;;;;;;;28.80;11.43;;;14.30;88.30;;;;;;5049843;28;20533;-51
2021/03/04 11:43:56;;;;;;;23.37;9.73;;;14.60;87.50;;;;;;5050202;28;21000;-52
2021/03/04 11:46:23;;;;;;;20.30;9.63;;;14.50;89.50;;;;;;5053716;28;20513;-51
2021/03/04 11:48:50;;;;;;;21.87;10.73;;;14.60;90.50;;;;;;5053680;28;20468;-52
2021/03/04 11:51:18;;;;;;;23.50;10.63;;;14.90;89.00;;;;;;5053994;28;20504;-52
2021/03/04 11:53:45;;;;;;;19.10;9.80;;;15.10;88.70;;;;;;5049518;28;20448;-52
2021/03/04 11:56:11;;;;;;;17.00;9.80;;;14.90;90.60;;;;;;5045264;28;20452;-53
2021/03/04 11:58:38;;;;;;;19.33;9.63;;;14.90;89.50;;;;;;5053647;28;20474;-52
2021/03/04 12:01:05;;;;;;;18.57;10.80;;;15.30;88.20;;;;;;5053986;28;20447;-52
2021/03/04 12:03:32;;;;;;;22.43;10.20;;;14.90;90.50;;;;;;5053866;28;20486;-52
2021/03/04 12:05:58;;;;;;;23.20;10.80;;;14.80;90.00;;;;;;5053357;28;20455;-52
2021/03/04 12:08:26;;;;;;;20.63;10.33;;;14.70;90.30;;;;;;5053702;28;20834;-52
2021/03/04 12:10:53;;;;;;;19.20;10.97;;;15.00;89.60;;;;;;5053521;28;20490;-53
2021/03/04 12:13:19;;;;;;;26.20;11.97;;;15.00;89.70;;;;;;5053445;28;20451;-52
2021/03/04 12:15:46;;;;;;;22.73;11.30;;;14.60;91.30;;;;;;5041282;28;20452;-52
2021/03/04 12:18:13;;;;;;;25.07;11.67;;;14.50;92.00;;;;;;5033588;28;20476;-53
2021/03/04 12:20:39;;;;;;;19.50;11.73;;;14.80;90.90;;;;;;5033555;28;20448;-52
2021/03/04 12:23:07;;;;;;;22.67;12.60;;;14.90;90.50;;;;;;5039345;28;20448;-52
2021/03/04 12:25:35;;;;;;;21.60;11.60;;;14.90;91.00;;;;;;5052678;28;20461;-52
2021/03/04 12:28:02;;;;;;;20.90;10.63;;;14.90;90.80;;;;;;5053103;28;20563;-53
2021/03/04 12:30:28;;;;;;;38.50;11.93;;;15.20;90.00;;;;;;5053242;28;20490;-52
2021/03/04 12:32:55;;;;;;;21.50;12.70;;;15.30;89.90;;;;;;5052997;28;20451;-52
2021/03/04 12:35:22;;;;;;;22.90;12.43;;;15.10;89.60;;;;;;5052905;28;20456;-53
2021/03/04 12:37:49;;;;;;;20.57;12.53;;;15.00;89.00;;;;;;5052784;28;20479;-52
2021/03/04 12:40:16;;;;;;;21.73;12.50;;;14.80;90.20;;;;;;5052610;28;20490;-52
2021/03/04 12:42:44;;;;;;;24.33;11.77;;;14.50;90.30;;;;;;5052802;28;20456;-53
2021/03/04 12:45:11;;;;;;;19.73;11.57;;;14.50;91.00;;;;;;5052822;28;20463;-52